Time,TemperatureF,DewpointF,PressureIn,WindDirection,WindDirectionDegrees,WindSpeedMPH,WindSpeedGustMPH,Humidity,HourlyPrecipIn,Conditions,Clouds,dailyrainin,SolarRadiationWatts/m^2,SoftwareType,DateUTC
2013-03-24 00:02:00,57.0,52.2,30.00,WSW,254,1.1,0.0,84,0.00,CLR,,0.00,0.0,WeatherDisplay:10.37,2013-03-24 07:02:00,
2013-03-24 00:08:00,56.8,52.0,30.00,WSW,254,0.0,0.0,84,0.00,CLR,,0.00,0.0,WeatherDisplay:10.37,2013-03-24 07:08:00,
2013-03-24 00:13:00,56.7,52.6,30.00,WSW,254,1.1,1.1,86,0.00,CLR,,0.00,0.0,WeatherDisplay:10.37,2013-03-24 07:13:00,
2013-03-24 00:18:00,56.7,52.6,30.00,WSW,254,1.1,1.1,86,0.00,CLR,,0.00,0.0,WeatherDisplay:10.37,2013-03-24 07:18:00,
2013-03-24 00:23:00,56.6,52.8,30.00,WSW,254,2.3,2.3,87,0.00,CLR,,0.00,0.0,WeatherDisplay:10.37,2013-03-24 07:23:00,
2013-03-24 00:28:00,56.5,52.7,30.00,WSW,254,1.1,1.1,87,0.00,CLR,,0.00,0.0,WeatherDisplay:10.37,2013-03-24 07:28:00,
2013-03-24 00:33:00,56.4,52.6,30.00,WSW,254,1.1,1.1,87,0.00,CLR,,0.00,0.0,WeatherDisplay:10.37,2013-03-24 07:33:00,
2013-03-24 00:38:00,56.3,52.5,30.00,WSW,254,2.3,2.3,87,0.00,CLR,,0.00,0.0,WeatherDisplay:10.37,2013-03-24 07:38:00,
2013-03-24 00:43:00,56.1,52.6,30.00,WSW,254,2.3,2.3,88,0.00,CLR,,0.00,0.0,WeatherDisplay:10.37,2013-03-24 07:43:00,
2013-03-24 00:48:00,56.1,52.6,30.00,WSW,254,1.1,0.0,88,0.00,CLR,,0.00,0.0,WeatherDisplay:10.37,2013-03-24 07:48:00,
2013-03-24 00:53:00,56.0,52.8,30.00,WSW,254,1.1,0.0,89,0.00,CLR,,0.00,0.0,WeatherDisplay:10.37,2013-03-24 07:53:00,
2013-03-24 00:58:00,56.0,52.8,30.00,WSW,254,1.1,1.1,89,0.00,CLR,,0.00,0.0,WeatherDisplay:10.37,2013-03-24 07:58:00,
2013-03-24 01:03:00,56.0,52.8,30.00,WSW,254,2.0,2.0,89,0.00,CLR,,0.00,0.0,WeatherDisplay:10.37,2013-03-24 08:03:00,
2013-03-24 01:08:00,56.0,52.8,30.00,WSW,254,2.3,2.3,89,0.00,CLR,,0.00,0.0,WeatherDisplay:10.37,2013-03-24 08:08:00,
2013-03-24 01:13:00,55.9,52.7,30.00,WSW,254,1.1,0.0,89,0.00,CLR,,0.00,0.0,WeatherDisplay:10.37,2013-03-24 08:13:00,
2013-03-24 01:18:00,55.9,53.0,30.00,WSW,254,2.3,2.3,90,0.00,CLR,,0.00,0.0,WeatherDisplay:10.37,2013-03-24 08:18:00,
2013-03-24 01:23:00,55.9,53.0,30.00,WSW,250,2.3,2.3,90,0.00,CLR,,0.00,0.0,WeatherDisplay:10.37,2013-03-24 08:23:00,
2013-03-24 01:28:00,56.0,53.1,30.00,WSW,248,2.3,2.3,90,0.00,CLR,,0.00,0.0,WeatherDisplay:10.37,2013-03-24 08:28:00,
2013-03-24 01:33:00,56.2,53.6,30.00,SW,217,2.0,2.0,91,0.00,CLR,,0.00,0.0,WeatherDisplay:10.37,2013-03-24 08:33:00,
2013-03-24 01:38:00,56.4,53.8,30.00,SW,217,4.0,4.0,91,0.00,CLR,,0.00,0.0,WeatherDisplay:10.37,2013-03-24 08:38:00,
2013-03-24 01:43:00,56.5,53.9,30.00,SSE,155,5.0,5.0,91,0.00,CLR,,0.00,0.0,WeatherDisplay:10.37,2013-03-24 08:43:00,
2013-03-24 01:48:00,56.5,53.9,30.00,SE,130,3.5,3.5,91,0.00,CLR,,0.00,0.0,WeatherDisplay:10.37,2013-03-24 08:48:00,
2013-03-24 01:53:00,56.6,54.0,30.00,SE,137,5.8,5.8,91,0.00,CLR,,0.00,0.0,WeatherDisplay:10.37,2013-03-24 08:53:00,
2013-03-24 01:58:00,56.6,54.0,30.00,SE,137,3.5,3.5,91,0.00,CLR,,0.00,0.0,WeatherDisplay:10.37,2013-03-24 08:58:00,
2013-03-24 02:03:00,56.7,54.1,30.00,SE,142,3.5,3.5,91,0.00,CLR,,0.00,0.0,WeatherDisplay:10.37,2013-03-24 09:03:00,
2013-03-24 02:08:00,56.7,54.1,30.00,SE,135,3.0,3.0,91,0.00,CLR,,0.00,0.0,WeatherDisplay:10.37,2013-03-24 09:08:00,
2013-03-24 02:13:00,56.7,54.1,30.00,ESE,116,3.5,3.5,91,0.00,CLR,,0.00,0.0,WeatherDisplay:10.37,2013-03-24 09:13:00,
2013-03-24 02:18:00,56.6,54.0,30.00,SE,134,3.5,3.5,91,0.00,CLR,,0.00,0.0,WeatherDisplay:10.37,2013-03-24 09:18:00,
2013-03-24 02:23:00,56.6,54.0,30.00,SSE,153,3.5,3.5,91,0.00,CLR,,0.00,0.0,WeatherDisplay:10.37,2013-03-24 09:23:00,
2013-03-24 02:28:00,56.6,54.0,30.00,SE,137,2.3,2.3,91,0.00,CLR,,0.00,0.0,WeatherDisplay:10.37,2013-03-24 09:28:00,
2013-03-24 02:33:00,56.5,53.9,30.00,ESE,113,3.5,3.5,91,0.00,CLR,,0.00,0.0,WeatherDisplay:10.37,2013-03-24 09:33:00,
2013-03-24 02:38:00,56.5,53.6,30.00,SE,128,3.5,3.5,90,0.00,CLR,,0.00,0.0,WeatherDisplay:10.37,2013-03-24 09:38:00,
2013-03-24 02:43:00,56.5,53.6,29.99,SE,129,2.3,2.3,90,0.00,CLR,,0.00,0.0,WeatherDisplay:10.37,2013-03-24 09:43:00,
2013-03-24 02:48:00,56.5,53.6,30.00,SE,129,1.1,0.0,90,0.00,CLR,,0.00,0.0,WeatherDisplay:10.37,2013-03-24 09:48:00,
2013-03-24 02:53:00,56.4,53.5,29.99,ENE,72,3.5,3.5,90,0.00,CLR,,0.00,0.0,WeatherDisplay:10.37,2013-03-24 09:53:00,
2013-03-24 02:58:00,56.4,53.5,29.99,SE,135,3.5,3.5,90,0.00,CLR,,0.00,0.0,WeatherDisplay:10.37,2013-03-24 09:58:00,
2013-03-24 03:03:00,56.4,53.5,29.99,SSE,160,5.8,5.8,90,0.00,CLR,,0.00,0.0,WeatherDisplay:10.37,2013-03-24 10:03:00,
2013-03-24 03:08:00,56.4,53.2,29.99,SSE,156,3.5,3.5,89,0.00,CLR,,0.00,0.0,WeatherDisplay:10.37,2013-03-24 10:08:00,
2013-03-24 03:13:00,56.3,53.1,29.99,SSE,153,5.0,5.0,89,0.00,CLR,,0.00,0.0,WeatherDisplay:10.37,2013-03-24 10:13:00,
2013-03-24 03:18:00,56.2,53.0,29.99,SSE,157,3.5,3.5,89,0.00,CLR,,0.00,0.0,WeatherDisplay:10.37,2013-03-24 10:18:00,
2013-03-24 03:23:00,56.1,52.9,29.99,SSE,157,0.0,0.0,89,0.00,CLR,,0.00,0.0,WeatherDisplay:10.37,2013-03-24 10:23:00,
2013-03-24 03:28:00,56.1,52.9,29.98,SSE,157,4.6,4.6,89,0.00,CLR,,0.00,0.0,WeatherDisplay:10.37,2013-03-24 10:28:00,
2013-03-24 03:33:00,56.1,52.9,29.98,SSE,164,3.5,3.5,89,0.00,CLR,,0.00,0.0,WeatherDisplay:10.37,2013-03-24 10:33:00,
2013-03-24 03:38:00,56.1,52.9,29.98,SSE,164,1.1,0.0,89,0.00,CLR,,0.00,0.0,WeatherDisplay:10.37,2013-03-24 10:38:00,
2013-03-24 03:43:00,56.1,52.9,29.98,SSE,164,0.0,0.0,89,0.00,CLR,,0.00,0.0,WeatherDisplay:10.37,2013-03-24 10:43:00,
2013-03-24 03:48:00,56.1,52.9,29.99,SSE,164,1.1,0.0,89,0.00,CLR,,0.00,0.0,WeatherDisplay:10.37,2013-03-24 10:48:00,
2013-03-24 03:53:00,56.1,52.9,29.99,SSE,164,1.1,0.0,89,0.00,CLR,,0.00,0.0,WeatherDisplay:10.37,2013-03-24 10:53:00,
2013-03-24 03:58:00,56.1,52.9,29.99,SSE,164,1.1,1.1,89,0.00,CLR,,0.00,0.0,WeatherDisplay:10.37,2013-03-24 10:58:00,
2013-03-24 04:03:00,56.1,52.6,29.99,SSE,164,1.1,0.0,88,0.00,CLR,,0.00,0.0,WeatherDisplay:10.37,2013-03-24 11:03:00,
2013-03-24 04:08:00,56.0,52.5,29.99,SSE,161,1.1,1.1,88,0.00,CLR,,0.00,0.0,WeatherDisplay:10.37,2013-03-24 11:08:00,
2013-03-24 04:13:00,56.0,52.5,29.98,SSE,161,1.1,0.0,88,0.00,CLR,,0.00,0.0,WeatherDisplay:10.37,2013-03-24 11:13:00,
2013-03-24 04:18:00,55.9,52.4,29.99,SSE,161,0.0,0.0,88,0.00,CLR,,0.00,0.0,WeatherDisplay:10.37,2013-03-24 11:18:00,
2013-03-24 04:23:00,55.9,52.4,29.98,SE,140,3.5,3.5,88,0.00,CLR,,0.00,0.0,WeatherDisplay:10.37,2013-03-24 11:23:00,
2013-03-24 04:28:00,55.8,52.3,29.98,SE,140,1.1,1.1,88,0.00,CLR,,0.00,0.0,WeatherDisplay:10.37,2013-03-24 11:28:00,
2013-03-24 04:33:00,55.7,52.2,29.98,SE,140,1.1,1.1,88,0.00,CLR,,0.00,0.0,WeatherDisplay:10.37,2013-03-24 11:33:00,
2013-03-24 04:38:00,55.5,52.0,29.99,SE,140,0.0,0.0,88,0.00,CLR,,0.00,0.0,WeatherDisplay:10.37,2013-03-24 11:38:00,
2013-03-24 04:43:00,55.4,51.9,29.99,SE,140,1.1,1.1,88,0.00,CLR,,0.00,0.0,WeatherDisplay:10.37,2013-03-24 11:43:00,
2013-03-24 04:48:00,55.2,51.7,29.98,SE,140,0.0,0.0,88,0.00,CLR,,0.00,0.0,WeatherDisplay:10.37,2013-03-24 11:48:00,
2013-03-24 04:53:00,55.1,51.9,29.99,SE,140,0.0,0.0,89,0.00,CLR,,0.00,0.0,WeatherDisplay:10.37,2013-03-24 11:53:00,
2013-03-24 04:58:00,54.9,51.7,29.99,SE,140,0.0,0.0,89,0.00,CLR,,0.00,0.0,WeatherDisplay:10.37,2013-03-24 11:58:00,
2013-03-24 05:03:00,54.8,51.6,29.99,SE,140,0.0,0.0,89,0.00,CLR,,0.00,0.0,WeatherDisplay:10.37,2013-03-24 12:03:00,
2013-03-24 05:08:00,54.6,51.4,29.99,SE,140,0.0,0.0,89,0.00,CLR,,0.00,0.0,WeatherDisplay:10.37,2013-03-24 12:08:00,
2013-03-24 05:13:00,54.4,51.2,29.99,SE,140,0.0,0.0,89,0.00,CLR,,0.00,0.0,WeatherDisplay:10.37,2013-03-24 12:13:00,
2013-03-24 05:18:00,54.3,51.1,29.99,SE,140,0.0,0.0,89,0.00,CLR,,0.00,0.0,WeatherDisplay:10.37,2013-03-24 12:18:00,
2013-03-24 05:23:00,54.2,51.3,29.99,SE,140,0.0,0.0,90,0.00,CLR,,0.00,0.0,WeatherDisplay:10.37,2013-03-24 12:23:00,
2013-03-24 05:28:00,54.2,51.3,30.00,SE,140,0.0,0.0,90,0.00,CLR,,0.00,0.0,WeatherDisplay:10.37,2013-03-24 12:28:00,
2013-03-24 05:33:00,54.3,51.4,30.00,SE,140,0.0,0.0,90,0.00,CLR,,0.00,0.0,WeatherDisplay:10.37,2013-03-24 12:33:00,
2013-03-24 05:38:00,54.4,51.5,30.00,SE,140,0.0,0.0,90,0.00,CLR,,0.00,0.0,WeatherDisplay:10.37,2013-03-24 12:38:00,
2013-03-24 05:43:00,54.5,51.9,30.00,SE,140,0.0,0.0,91,0.00,CLR,,0.00,0.0,WeatherDisplay:10.37,2013-03-24 12:43:00,
2013-03-24 05:48:00,54.6,52.0,30.00,SE,140,0.0,0.0,91,0.00,CLR,,0.00,0.0,WeatherDisplay:10.37,2013-03-24 12:48:00,
2013-03-24 05:53:00,54.6,52.0,29.99,SE,140,2.3,2.3,91,0.00,CLR,,0.00,0.0,WeatherDisplay:10.37,2013-03-24 12:53:00,
2013-03-24 05:58:00,54.9,52.3,30.00,SE,139,1.1,1.1,91,0.00,CLR,,0.00,0.0,WeatherDisplay:10.37,2013-03-24 12:58:00,
2013-03-24 06:03:00,55.0,52.1,30.00,SE,140,0.0,0.0,90,0.00,CLR,,0.00,0.0,WeatherDisplay:10.37,2013-03-24 13:03:00,
2013-03-24 06:08:00,55.1,52.2,30.00,SE,146,3.5,3.5,90,0.00,CLR,,0.00,0.0,WeatherDisplay:10.37,2013-03-24 13:08:00,
2013-03-24 06:13:00,55.2,52.0,30.00,WSW,237,3.5,3.5,89,0.00,CLR,,0.00,0.0,WeatherDisplay:10.37,2013-03-24 13:13:00,
2013-03-24 06:18:00,55.3,52.1,30.00,WSW,237,3.5,3.5,89,0.00,CLR,,0.00,0.0,WeatherDisplay:10.37,2013-03-24 13:18:00,
2013-03-24 06:23:00,55.3,52.1,30.00,WSW,237,2.3,2.3,89,0.00,CLR,,0.00,0.0,WeatherDisplay:10.37,2013-03-24 13:23:00,
2013-03-24 06:28:00,55.4,52.2,30.00,WSW,237,2.3,2.3,89,0.00,CLR,,0.00,0.0,WeatherDisplay:10.37,2013-03-24 13:28:00,
2013-03-24 06:33:00,55.4,52.2,30.00,WSW,237,1.1,0.0,89,0.00,CLR,,0.00,0.0,WeatherDisplay:10.37,2013-03-24 13:33:00,
2013-03-24 06:38:00,55.4,52.2,30.00,WSW,237,0.0,0.0,89,0.00,CLR,,0.00,0.0,WeatherDisplay:10.37,2013-03-24 13:38:00,
2013-03-24 06:43:00,55.4,52.2,30.00,WSW,237,0.0,0.0,89,0.00,CLR,,0.00,0.0,WeatherDisplay:10.37,2013-03-24 13:43:00,
2013-03-24 06:48:00,55.3,52.1,30.00,WSW,237,0.0,0.0,89,0.00,CLR,,0.00,0.0,WeatherDisplay:10.37,2013-03-24 13:48:00,
2013-03-24 06:53:00,55.4,52.2,30.00,WSW,237,0.0,0.0,89,0.00,CLR,,0.00,0.0,WeatherDisplay:10.37,2013-03-24 13:53:00,
2013-03-24 06:58:00,55.4,52.2,30.00,WSW,237,2.3,2.3,89,0.00,CLR,,0.00,0.0,WeatherDisplay:10.37,2013-03-24 13:58:00,
2013-03-24 07:03:00,55.4,52.2,30.00,WSW,237,0.0,0.0,89,0.00,BKN,,0.00,5.0,WeatherDisplay:10.37,2013-03-24 14:03:00,
2013-03-24 07:08:00,55.4,52.2,30.00,WSW,237,0.0,0.0,89,0.00,BKN,,0.00,9.0,WeatherDisplay:10.37,2013-03-24 14:08:00,
2013-03-24 07:13:00,55.4,52.2,30.00,WSW,237,1.1,1.1,89,0.00,BKN,,0.00,12.0,WeatherDisplay:10.37,2013-03-24 14:13:00,
2013-03-24 07:18:00,55.5,52.3,30.00,WSW,237,0.0,0.0,89,0.00,BKN,,0.00,14.0,WeatherDisplay:10.37,2013-03-24 14:18:00,
2013-03-24 07:23:00,55.5,52.0,30.00,WSW,237,2.3,2.3,88,0.00,BKN,,0.00,14.0,WeatherDisplay:10.37,2013-03-24 14:23:00,
2013-03-24 07:28:00,55.6,52.1,30.01,WSW,248,1.1,0.0,88,0.00,BKN,,0.00,19.0,WeatherDisplay:10.37,2013-03-24 14:28:00,
2013-03-24 07:33:00,55.6,52.1,30.00,WSW,248,2.3,2.3,88,0.00,BKN,,0.00,25.0,WeatherDisplay:10.37,2013-03-24 14:33:00,
2013-03-24 07:38:00,55.6,52.1,30.01,WSW,253,2.3,2.3,88,0.00,BKN,,0.00,28.0,WeatherDisplay:10.37,2013-03-24 14:38:00,
2013-03-24 07:43:00,55.7,52.2,30.01,WSW,253,2.3,2.3,88,0.00,BKN,,0.00,39.0,WeatherDisplay:10.37,2013-03-24 14:43:00,
2013-03-24 07:48:00,55.7,52.2,30.01,WSW,253,1.0,0.0,88,0.00,BKN,,0.00,51.0,WeatherDisplay:10.37,2013-03-24 14:48:00,
2013-03-24 07:53:00,55.8,52.3,30.01,NNW,342,2.0,2.0,88,0.00,BKN,,0.00,58.0,WeatherDisplay:10.37,2013-03-24 14:53:00,
2013-03-24 07:58:00,55.8,52.3,30.01,NE,44,3.0,3.0,88,0.00,BKN,,0.00,67.0,WeatherDisplay:10.37,2013-03-24 14:58:00,
2013-03-24 08:03:00,55.7,51.9,30.01,ENE,67,3.5,3.5,87,0.00,BKN,,0.00,69.0,WeatherDisplay:10.37,2013-03-24 15:03:00,
2013-03-24 08:08:00,55.7,51.9,30.01,NE,46,3.5,3.5,87,0.00,BKN,,0.00,83.0,WeatherDisplay:10.37,2013-03-24 15:08:00,
2013-03-24 08:13:00,55.8,52.0,30.01,NNE,29,3.5,3.5,87,0.00,BKN,,0.00,81.0,WeatherDisplay:10.37,2013-03-24 15:13:00,
2013-03-24 08:18:00,55.8,52.0,30.01,NNE,28,3.5,0.0,87,0.00,BKN,,0.00,86.0,WeatherDisplay:10.37,2013-03-24 15:18:00,
2013-03-24 08:24:00,55.9,52.1,30.01,NNE,28,3.5,3.5,87,0.00,BKN,,0.00,91.0,WeatherDisplay:10.37,2013-03-24 15:24:00,
2013-03-24 08:29:00,56.0,52.2,30.02,NE,38,2.3,2.3,87,0.00,BKN,,0.00,97.0,WeatherDisplay:10.37,2013-03-24 15:29:00,
2013-03-24 08:34:00,56.0,52.2,30.02,NE,46,3.5,3.5,87,0.00,BKN,,0.00,121.0,WeatherDisplay:10.37,2013-03-24 15:34:00,
2013-03-24 08:39:00,56.1,52.3,30.02,NE,51,3.5,3.5,87,0.00,BKN,,0.00,148.0,WeatherDisplay:10.37,2013-03-24 15:39:00,
2013-03-24 08:44:00,56.2,52.4,30.02,NE,50,4.0,4.0,87,0.00,BKN,,0.00,137.0,WeatherDisplay:10.37,2013-03-24 15:44:00,
2013-03-24 08:49:00,56.1,52.3,30.02,NNE,30,2.3,2.3,87,0.00,BKN,,0.00,134.0,WeatherDisplay:10.37,2013-03-24 15:49:00,
2013-03-24 08:54:00,56.0,51.9,30.02,WNW,298,3.5,3.5,86,0.00,BKN,,0.00,144.0,WeatherDisplay:10.37,2013-03-24 15:54:00,
2013-03-24 08:59:00,56.2,52.4,30.03,NNE,16,4.0,4.0,87,0.00,BKN,,0.00,169.0,WeatherDisplay:10.37,2013-03-24 15:59:00,
2013-03-24 09:04:00,56.2,52.1,30.03,North,351,3.5,3.5,86,0.00,BKN,,0.00,186.0,WeatherDisplay:10.37,2013-03-24 16:04:00,
2013-03-24 09:09:00,56.0,51.9,30.03,NNW,343,3.5,3.5,86,0.00,BKN,,0.00,171.0,WeatherDisplay:10.37,2013-03-24 16:09:00,
2013-03-24 09:14:00,56.0,51.9,30.03,NNE,26,3.5,3.5,86,0.00,BKN,,0.00,223.0,WeatherDisplay:10.37,2013-03-24 16:14:00,
2013-03-24 09:19:00,56.3,52.5,30.03,NNE,19,4.6,4.6,87,0.00,BKN,,0.00,195.0,WeatherDisplay:10.37,2013-03-24 16:19:00,
2013-03-24 09:24:00,56.3,52.2,30.02,NNE,19,3.5,3.5,86,0.00,BKN,,0.00,237.0,WeatherDisplay:10.37,2013-03-24 16:24:00,
2013-03-24 09:29:00,56.5,52.4,30.02,North,11,4.6,4.6,86,0.00,FEW,,0.00,292.0,WeatherDisplay:10.37,2013-03-24 16:29:00,
2013-03-24 09:34:00,56.7,52.2,30.02,NNE,15,4.0,4.0,85,0.00,CLR,,0.00,459.0,WeatherDisplay:10.37,2013-03-24 16:34:00,
2013-03-24 09:39:00,56.9,52.1,30.02,WNW,296,4.6,4.6,84,0.00,CLR,,0.00,482.0,WeatherDisplay:10.37,2013-03-24 16:39:00,
2013-03-24 09:44:00,57.1,52.3,30.02,NW,317,2.3,2.3,84,0.00,CLR,,0.00,497.0,WeatherDisplay:10.37,2013-03-24 16:44:00,
2013-03-24 09:49:00,57.7,52.2,30.02,NNW,332,3.5,3.5,82,0.00,CLR,,0.00,501.0,WeatherDisplay:10.37,2013-03-24 16:49:00,
2013-03-24 09:54:00,58.2,52.4,30.02,West,279,3.5,3.5,81,0.00,CLR,,0.00,529.0,WeatherDisplay:10.37,2013-03-24 16:54:00,
2013-03-24 09:59:00,58.7,52.5,30.02,WNW,303,5.0,5.0,80,0.00,CLR,,0.00,536.0,WeatherDisplay:10.37,2013-03-24 16:59:00,
2013-03-24 10:04:00,58.8,52.0,30.02,WNW,300,4.6,4.6,78,0.00,CLR,,0.00,557.0,WeatherDisplay:10.37,2013-03-24 17:04:00,
2013-03-24 10:09:00,59.0,52.5,30.02,NNW,327,4.6,4.6,79,0.00,CLR,,0.00,563.0,WeatherDisplay:10.37,2013-03-24 17:09:00,
2013-03-24 10:14:00,59.5,53.0,30.02,NW,323,4.0,4.0,79,0.00,CLR,,0.00,582.0,WeatherDisplay:10.37,2013-03-24 17:14:00,
2013-03-24 10:19:00,59.9,53.0,30.02,West,281,4.6,4.6,78,0.00,CLR,,0.00,599.0,WeatherDisplay:10.37,2013-03-24 17:19:00,
2013-03-24 10:24:00,60.1,53.2,30.01,West,281,3.5,3.5,78,0.00,CLR,,0.00,606.0,WeatherDisplay:10.37,2013-03-24 17:24:00,
2013-03-24 10:29:00,60.6,52.6,30.01,WNW,298,6.0,6.0,75,0.00,CLR,,0.00,617.0,WeatherDisplay:10.37,2013-03-24 17:29:00,
2013-03-24 10:34:00,60.8,52.5,30.01,West,269,5.8,5.8,74,0.00,CLR,,0.00,638.0,WeatherDisplay:10.37,2013-03-24 17:34:00,
2013-03-24 10:39:00,61.5,53.1,30.01,NNW,328,4.0,4.0,74,0.00,CLR,,0.00,650.0,WeatherDisplay:10.37,2013-03-24 17:39:00,
2013-03-24 10:44:00,62.0,53.2,30.01,NNW,340,2.3,2.3,73,0.00,CLR,,0.00,661.0,WeatherDisplay:10.37,2013-03-24 17:44:00,
2013-03-24 10:49:00,62.4,53.6,30.01,WNW,292,4.0,4.0,73,0.00,CLR,,0.00,671.0,WeatherDisplay:10.37,2013-03-24 17:49:00,
2013-03-24 10:54:00,62.6,53.4,30.00,West,277,4.6,4.6,72,0.00,CLR,,0.00,677.0,WeatherDisplay:10.37,2013-03-24 17:54:00,
2013-03-24 10:59:00,62.9,53.7,30.00,West,277,3.5,3.5,72,0.00,CLR,,0.00,698.0,WeatherDisplay:10.37,2013-03-24 17:59:00,
2013-03-24 11:04:00,63.7,53.7,30.00,WSW,243,3.5,3.5,70,0.00,CLR,,0.00,705.0,WeatherDisplay:10.37,2013-03-24 18:04:00,
2013-03-24 11:09:00,64.1,53.7,30.00,SSW,192,3.5,3.5,69,0.00,CLR,,0.00,708.0,WeatherDisplay:10.37,2013-03-24 18:09:00,
2013-03-24 11:14:00,64.6,53.8,30.00,SW,215,3.5,3.5,68,0.00,CLR,,0.00,717.0,WeatherDisplay:10.37,2013-03-24 18:14:00,
2013-03-24 11:19:00,65.1,53.9,29.99,South,191,3.5,3.5,67,0.00,CLR,,0.00,737.0,WeatherDisplay:10.37,2013-03-24 18:19:00,
2013-03-24 11:24:00,65.4,53.7,29.99,South,173,3.5,3.5,66,0.00,CLR,,0.00,742.0,WeatherDisplay:10.37,2013-03-24 18:24:00,
2013-03-24 11:29:00,65.8,53.7,29.99,North,350,4.6,4.6,65,0.00,CLR,,0.00,745.0,WeatherDisplay:10.37,2013-03-24 18:29:00,
2013-03-24 11:34:00,66.2,53.7,29.99,West,272,3.5,3.5,64,0.00,CLR,,0.00,742.0,WeatherDisplay:10.37,2013-03-24 18:34:00,
2013-03-24 11:39:00,66.3,53.3,29.99,WNW,302,5.0,5.0,63,0.00,CLR,,0.00,766.0,WeatherDisplay:10.37,2013-03-24 18:39:00,
2013-03-24 11:44:00,66.5,53.5,29.99,NW,318,3.5,3.5,63,0.00,CLR,,0.00,768.0,WeatherDisplay:10.37,2013-03-24 18:44:00,
2013-03-24 11:49:00,67.4,53.5,29.99,West,277,5.0,5.0,61,0.00,CLR,,0.00,780.0,WeatherDisplay:10.37,2013-03-24 18:49:00,
2013-03-24 11:54:00,67.4,53.5,29.99,West,276,3.5,3.5,61,0.00,CLR,,0.00,777.0,WeatherDisplay:10.37,2013-03-24 18:54:00,
2013-03-24 11:59:00,67.6,52.8,29.98,WNW,300,5.8,5.8,59,0.00,CLR,,0.00,786.0,WeatherDisplay:10.37,2013-03-24 18:59:00,
2013-03-24 12:04:00,68.0,53.1,29.98,WNW,286,2.3,2.3,59,0.00,CLR,,0.00,795.0,WeatherDisplay:10.37,2013-03-24 19:04:00,
2013-03-24 12:09:00,68.7,52.8,29.98,West,275,3.5,3.5,57,0.00,CLR,,0.00,800.0,WeatherDisplay:10.37,2013-03-24 19:09:00,
2013-03-24 12:14:00,69.3,51.9,29.98,NW,313,3.0,3.0,54,0.00,CLR,,0.00,807.0,WeatherDisplay:10.37,2013-03-24 19:14:00,
2013-03-24 12:19:00,69.7,51.8,29.98,WNW,297,3.5,3.5,53,0.00,CLR,,0.00,807.0,WeatherDisplay:10.37,2013-03-24 19:19:00,
2013-03-24 12:24:00,70.3,51.8,29.97,South,175,4.6,4.6,52,0.00,CLR,,0.00,814.0,WeatherDisplay:10.37,2013-03-24 19:24:00,
2013-03-24 12:29:00,70.4,51.4,29.97,SW,214,4.6,4.6,51,0.00,CLR,,0.00,821.0,WeatherDisplay:10.37,2013-03-24 19:29:00,
2013-03-24 12:34:00,70.6,51.6,29.97,SSW,194,2.3,2.3,51,0.00,CLR,,0.00,821.0,WeatherDisplay:10.37,2013-03-24 19:34:00,
2013-03-24 12:39:00,70.8,50.7,29.97,SE,132,3.5,3.5,49,0.00,CLR,,0.00,823.0,WeatherDisplay:10.37,2013-03-24 19:39:00,
2013-03-24 12:44:00,71.1,51.0,29.96,South,182,7.0,7.0,49,0.00,CLR,,0.00,824.0,WeatherDisplay:10.37,2013-03-24 19:44:00,
2013-03-24 12:49:00,71.1,51.0,29.96,SSW,193,4.0,4.0,49,0.00,CLR,,0.00,828.0,WeatherDisplay:10.37,2013-03-24 19:49:00,
2013-03-24 12:54:00,71.3,51.1,29.96,WSW,254,3.5,3.5,49,0.00,CLR,,0.00,817.0,WeatherDisplay:10.37,2013-03-24 19:54:00,
2013-03-24 12:59:00,71.6,50.9,29.95,West,276,4.6,4.6,48,0.00,CLR,,0.00,831.0,WeatherDisplay:10.37,2013-03-24 19:59:00,
2013-03-24 13:05:00,72.1,50.2,29.95,South,181,6.9,6.9,46,0.00,CLR,,0.00,835.0,WeatherDisplay:10.37,2013-03-24 20:05:00,
2013-03-24 13:10:00,72.2,50.8,29.95,SSW,201,3.5,3.5,47,0.00,CLR,,0.00,823.0,WeatherDisplay:10.37,2013-03-24 20:10:00,
2013-03-24 13:15:00,72.6,50.6,29.95,East,101,2.3,2.3,46,0.00,CLR,,0.00,817.0,WeatherDisplay:10.37,2013-03-24 20:15:00,
2013-03-24 13:20:00,72.9,50.3,29.95,South,170,4.6,4.6,45,0.00,CLR,,0.00,821.0,WeatherDisplay:10.37,2013-03-24 20:20:00,
2013-03-24 13:25:00,73.2,50.0,29.94,SSW,211,5.8,5.8,44,0.00,CLR,,0.00,819.0,WeatherDisplay:10.37,2013-03-24 20:25:00,
2013-03-24 13:30:00,73.7,49.2,29.94,SSW,211,5.8,5.8,42,0.00,CLR,,0.00,814.0,WeatherDisplay:10.37,2013-03-24 20:30:00,
2013-03-24 13:35:00,73.8,50.5,29.94,WSW,251,3.5,3.5,44,0.00,CLR,,0.00,805.0,WeatherDisplay:10.37,2013-03-24 20:35:00,
2013-03-24 13:40:00,74.5,52.4,29.93,SSW,211,5.0,5.0,46,0.00,CLR,,0.00,795.0,WeatherDisplay:10.37,2013-03-24 20:40:00,
2013-03-24 13:45:00,74.7,51.3,29.93,West,269,8.0,8.0,44,0.00,CLR,,0.00,798.0,WeatherDisplay:10.37,2013-03-24 20:45:00,
2013-03-24 13:50:00,74.3,50.4,29.93,West,277,7.0,7.0,43,0.00,CLR,,0.00,784.0,WeatherDisplay:10.37,2013-03-24 20:50:00,
2013-03-24 13:55:00,74.2,51.5,29.93,WNW,291,8.1,8.1,45,0.00,CLR,,0.00,784.0,WeatherDisplay:10.37,2013-03-24 20:55:00,
2013-03-24 14:00:00,74.9,51.5,29.93,South,173,6.9,6.9,44,0.00,CLR,,0.00,775.0,WeatherDisplay:10.37,2013-03-24 21:00:00,
2013-03-24 14:05:00,75.3,51.3,29.92,SSE,157,4.6,4.6,43,0.00,SCT,,0.00,543.0,WeatherDisplay:10.37,2013-03-24 21:05:00,
2013-03-24 14:10:00,75.9,50.5,29.92,South,182,6.0,6.0,41,0.00,CLR,,0.00,766.0,WeatherDisplay:10.37,2013-03-24 21:10:00,
2013-03-24 14:15:00,76.0,52.5,29.92,South,177,8.1,8.1,44,0.00,CLR,,0.00,765.0,WeatherDisplay:10.37,2013-03-24 21:15:00,
2013-03-24 14:20:00,75.7,51.6,29.92,West,279,8.1,8.1,43,0.00,CLR,,0.00,763.0,WeatherDisplay:10.37,2013-03-24 21:20:00,
2013-03-24 14:25:00,76.0,53.7,29.91,WSW,248,8.1,8.1,46,0.00,CLR,,0.00,756.0,WeatherDisplay:10.37,2013-03-24 21:25:00,
2013-03-24 14:30:00,76.2,53.9,29.91,SSW,205,11.0,11.0,46,0.00,CLR,,0.00,735.0,WeatherDisplay:10.37,2013-03-24 21:30:00,
2013-03-24 14:35:00,76.3,54.0,29.91,SSW,202,7.0,7.0,46,0.00,CLR,,0.00,735.0,WeatherDisplay:10.37,2013-03-24 21:35:00,
2013-03-24 14:40:00,76.4,53.5,29.91,SSE,165,7.0,7.0,45,0.00,CLR,,0.00,729.0,WeatherDisplay:10.37,2013-03-24 21:40:00,
2013-03-24 14:45:00,76.6,52.4,29.91,West,265,8.1,8.1,43,0.00,CLR,,0.00,715.0,WeatherDisplay:10.37,2013-03-24 21:45:00,
2013-03-24 14:50:00,76.9,52.7,29.90,SSW,192,9.2,9.2,43,0.00,CLR,,0.00,705.0,WeatherDisplay:10.37,2013-03-24 21:50:00,
2013-03-24 14:55:00,77.3,52.4,29.90,South,182,8.1,8.1,42,0.00,CLR,,0.00,679.0,WeatherDisplay:10.37,2013-03-24 21:55:00,
2013-03-24 15:00:00,77.1,53.5,29.90,SSE,166,8.1,8.1,44,0.00,CLR,,0.00,687.0,WeatherDisplay:10.37,2013-03-24 22:00:00,
2013-03-24 15:05:00,76.9,53.3,29.90,WSW,247,9.2,9.2,44,0.00,CLR,,0.00,687.0,WeatherDisplay:10.37,2013-03-24 22:05:00,
2013-03-24 15:10:00,77.2,51.7,29.90,SW,217,10.4,10.4,41,0.00,CLR,,0.00,673.0,WeatherDisplay:10.37,2013-03-24 22:10:00,
2013-03-24 15:15:00,76.7,50.6,29.90,SSW,207,11.5,11.5,40,0.00,CLR,,0.00,673.0,WeatherDisplay:10.37,2013-03-24 22:15:00,
2013-03-24 15:20:00,77.0,52.8,29.90,SSW,211,7.0,7.0,43,0.00,CLR,,0.00,657.0,WeatherDisplay:10.37,2013-03-24 22:20:00,
2013-03-24 15:25:00,76.6,53.1,29.89,SSW,196,11.5,11.5,44,0.00,CLR,,0.00,652.0,WeatherDisplay:10.37,2013-03-24 22:25:00,
2013-03-24 15:30:00,76.8,53.8,29.90,SSW,203,9.0,9.0,45,0.00,CLR,,0.00,629.0,WeatherDisplay:10.37,2013-03-24 22:30:00,
2013-03-24 15:35:00,77.0,54.6,29.90,West,272,9.2,9.2,46,0.00,CLR,,0.00,613.0,WeatherDisplay:10.37,2013-03-24 22:35:00,
2013-03-24 15:40:00,76.4,54.7,29.90,WSW,253,9.2,9.2,47,0.00,CLR,,0.00,541.0,WeatherDisplay:10.37,2013-03-24 22:40:00,
2013-03-24 15:45:00,75.1,54.1,29.90,West,275,11.5,11.5,48,0.00,CLR,,0.00,587.0,WeatherDisplay:10.37,2013-03-24 22:45:00,
2013-03-24 15:50:00,74.3,54.5,29.90,WSW,257,11.5,11.5,50,0.00,CLR,,0.00,578.0,WeatherDisplay:10.37,2013-03-24 22:50:00,
2013-03-24 15:55:00,73.7,54.4,29.90,WNW,296,13.8,13.8,51,0.00,FEW,,0.00,459.0,WeatherDisplay:10.37,2013-03-24 22:55:00,
2013-03-24 16:00:00,73.1,54.4,29.90,WSW,257,12.0,12.0,52,0.00,CLR,,0.00,577.0,WeatherDisplay:10.37,2013-03-24 23:00:00,
2013-03-24 16:05:00,72.9,54.2,29.90,West,276,12.7,12.7,52,0.00,CLR,,0.00,548.0,WeatherDisplay:10.37,2013-03-24 23:05:00,
2013-03-24 16:10:00,71.9,54.3,29.90,SW,214,11.5,11.5,54,0.00,CLR,,0.00,478.0,WeatherDisplay:10.37,2013-03-24 23:10:00,
2013-03-24 16:15:00,72.0,54.4,29.90,WSW,241,6.9,6.9,54,0.00,CLR,,0.00,462.0,WeatherDisplay:10.37,2013-03-24 23:15:00,
2013-03-24 16:20:00,71.7,54.2,29.90,West,273,11.5,11.5,54,0.00,CLR,,0.00,494.0,WeatherDisplay:10.37,2013-03-24 23:20:00,
2013-03-24 16:25:00,71.2,54.2,29.89,WNW,302,11.5,11.5,55,0.00,CLR,,0.00,478.0,WeatherDisplay:10.37,2013-03-24 23:25:00,
2013-03-24 16:30:00,71.0,54.0,29.89,WNW,291,10.4,10.4,55,0.00,CLR,,0.00,431.0,WeatherDisplay:10.37,2013-03-24 23:30:00,
2013-03-24 16:35:00,70.9,53.9,29.89,WSW,248,10.4,10.4,55,0.00,SCT,,0.00,288.0,WeatherDisplay:10.37,2013-03-24 23:35:00,
2013-03-24 16:40:00,71.1,54.1,29.89,West,267,5.8,5.8,55,0.00,SCT,,0.00,306.0,WeatherDisplay:10.37,2013-03-24 23:40:00,
2013-03-24 16:45:00,70.3,53.4,29.89,WNW,290,11.5,11.5,55,0.00,CLR,,0.00,429.0,WeatherDisplay:10.37,2013-03-24 23:45:00,
2013-03-24 16:50:00,70.2,53.3,29.89,NW,310,10.4,10.4,55,0.00,CLR,,0.00,399.0,WeatherDisplay:10.37,2013-03-24 23:50:00,
2013-03-24 16:55:00,70.0,53.1,29.89,West,272,11.5,11.5,55,0.00,CLR,,0.00,381.0,WeatherDisplay:10.37,2013-03-24 23:55:00,
2013-03-24 17:00:00,69.7,52.8,29.89,West,274,9.2,9.2,55,0.00,CLR,,0.00,366.0,WeatherDisplay:10.37,2013-03-25 00:00:00,
2013-03-24 17:05:00,69.8,52.9,29.89,WNW,284,10.4,10.4,55,0.00,FEW,,0.00,236.0,WeatherDisplay:10.37,2013-03-25 00:05:00,
2013-03-24 17:10:00,69.5,52.6,29.89,West,269,8.1,8.1,55,0.00,CLR,,0.00,327.0,WeatherDisplay:10.37,2013-03-25 00:10:00,
2013-03-24 17:15:00,69.5,52.6,29.89,WNW,284,9.2,9.2,55,0.00,CLR,,0.00,311.0,WeatherDisplay:10.37,2013-03-25 00:15:00,
2013-03-24 17:20:00,69.5,52.6,29.88,WNW,299,9.2,9.2,55,0.00,CLR,,0.00,294.0,WeatherDisplay:10.37,2013-03-25 00:20:00,
2013-03-24 17:25:00,69.1,52.2,29.88,West,281,9.2,9.2,55,0.00,CLR,,0.00,274.0,WeatherDisplay:10.37,2013-03-25 00:25:00,
2013-03-24 17:30:00,69.3,52.4,29.88,WNW,290,9.0,9.0,55,0.00,CLR,,0.00,255.0,WeatherDisplay:10.37,2013-03-25 00:30:00,
2013-03-24 17:35:00,69.2,52.3,29.88,WNW,293,9.2,9.2,55,0.00,CLR,,0.00,237.0,WeatherDisplay:10.37,2013-03-25 00:35:00,
2013-03-24 17:40:00,69.0,51.7,29.88,WNW,284,10.4,10.4,54,0.00,CLR,,0.00,221.0,WeatherDisplay:10.37,2013-03-25 00:40:00,
2013-03-24 17:45:00,68.7,51.4,29.88,NW,306,10.4,10.4,54,0.00,CLR,,0.00,204.0,WeatherDisplay:10.37,2013-03-25 00:45:00,
2013-03-24 17:50:00,68.7,51.4,29.88,WSW,257,9.0,9.0,54,0.00,CLR,,0.00,192.0,WeatherDisplay:10.37,2013-03-25 00:50:00,
2013-03-24 17:55:00,69.0,51.7,29.88,WSW,256,6.9,6.9,54,0.00,CLR,,0.00,174.0,WeatherDisplay:10.37,2013-03-25 00:55:00,
2013-03-24 18:00:00,69.2,51.3,29.88,WNW,289,10.4,10.4,53,0.00,CLR,,0.00,155.0,WeatherDisplay:10.37,2013-03-25 01:00:00,
2013-03-24 18:05:00,69.1,51.2,29.88,West,261,5.8,5.8,53,0.00,CLR,,0.00,135.0,WeatherDisplay:10.37,2013-03-25 01:05:00,
2013-03-24 18:10:00,69.2,50.8,29.88,WNW,291,5.8,5.8,52,0.00,FEW,,0.00,116.0,WeatherDisplay:10.37,2013-03-25 01:10:00,
2013-03-24 18:15:00,69.1,49.7,29.88,WNW,292,7.0,7.0,50,0.00,FEW,,0.00,98.0,WeatherDisplay:10.37,2013-03-25 01:15:00,
2013-03-24 18:20:00,69.2,50.3,29.88,West,271,6.9,6.9,51,0.00,SCT,,0.00,83.0,WeatherDisplay:10.37,2013-03-25 01:20:00,
2013-03-24 18:25:00,69.1,50.7,29.88,West,261,7.0,7.0,52,0.00,SCT,,0.00,65.0,WeatherDisplay:10.37,2013-03-25 01:25:00,
2013-03-24 18:30:00,68.7,50.9,29.88,West,281,4.6,4.6,53,0.00,SCT,,0.00,54.0,WeatherDisplay:10.37,2013-03-25 01:30:00,
2013-03-24 18:35:00,68.6,51.8,29.88,WNW,292,6.9,6.9,55,0.00,SCT,,0.00,42.0,WeatherDisplay:10.37,2013-03-25 01:35:00,
2013-03-24 18:40:00,68.4,51.6,29.88,West,265,8.0,8.0,55,0.00,SCT,,0.00,33.0,WeatherDisplay:10.37,2013-03-25 01:40:00,
2013-03-24 18:45:00,68.0,51.7,29.88,West,263,5.8,5.8,56,0.00,BKN,,0.00,25.0,WeatherDisplay:10.37,2013-03-25 01:45:00,
2013-03-24 18:50:00,67.7,52.4,29.89,West,259,8.1,8.1,58,0.00,BKN,,0.00,18.0,WeatherDisplay:10.37,2013-03-25 01:50:00,
2013-03-24 18:55:00,67.3,52.0,29.89,WSW,257,6.0,6.0,58,0.00,SCT,,0.00,12.0,WeatherDisplay:10.37,2013-03-25 01:55:00,
2013-03-24 19:00:00,66.9,52.6,29.89,West,259,6.9,6.9,60,0.00,SCT,,0.00,9.0,WeatherDisplay:10.37,2013-03-25 02:00:00,
2013-03-24 19:05:00,66.7,52.4,29.89,WNW,291,5.8,5.8,60,0.00,CLR,,0.00,5.0,WeatherDisplay:10.37,2013-03-25 02:05:00,
2013-03-24 19:10:00,66.5,52.6,29.89,WSW,257,6.0,6.0,61,0.00,CLR,,0.00,0.0,WeatherDisplay:10.37,2013-03-25 02:10:00,
2013-03-24 19:15:00,66.2,52.8,29.89,WSW,257,3.5,3.5,62,0.00,CLR,,0.00,0.0,WeatherDisplay:10.37,2013-03-25 02:15:00,
2013-03-24 19:20:00,65.8,52.4,29.89,West,264,4.6,4.6,62,0.00,CLR,,0.00,0.0,WeatherDisplay:10.37,2013-03-25 02:20:00,
2013-03-24 19:25:00,65.6,52.2,29.89,West,263,5.8,5.8,62,0.00,CLR,,0.00,0.0,WeatherDisplay:10.37,2013-03-25 02:25:00,
2013-03-24 19:30:00,65.3,52.8,29.89,WSW,257,3.5,3.5,64,0.00,CLR,,0.00,0.0,WeatherDisplay:10.37,2013-03-25 02:30:00,
2013-03-24 19:35:00,65.2,53.1,29.89,WNW,286,4.0,4.0,65,0.00,CLR,,0.00,0.0,WeatherDisplay:10.37,2013-03-25 02:35:00,
2013-03-24 19:40:00,64.9,52.8,29.89,WNW,286,5.0,5.0,65,0.00,CLR,,0.00,0.0,WeatherDisplay:10.37,2013-03-25 02:40:00,
2013-03-24 19:45:00,64.8,53.2,29.89,West,275,4.6,4.6,66,0.00,CLR,,0.00,0.0,WeatherDisplay:10.37,2013-03-25 02:45:00,
2013-03-24 19:50:00,64.5,53.3,29.89,West,275,3.5,3.5,67,0.00,CLR,,0.00,0.0,WeatherDisplay:10.37,2013-03-25 02:50:00,
2013-03-24 19:55:00,64.3,53.5,29.89,West,275,1.1,1.1,68,0.00,CLR,,0.00,0.0,WeatherDisplay:10.37,2013-03-25 02:55:00,
2013-03-24 20:00:00,64.0,53.6,29.89,West,275,2.3,2.3,69,0.00,CLR,,0.00,0.0,WeatherDisplay:10.37,2013-03-25 03:00:00,
2013-03-24 20:05:00,63.8,53.4,29.90,West,275,1.1,1.1,69,0.00,CLR,,0.00,0.0,WeatherDisplay:10.37,2013-03-25 03:05:00,
2013-03-24 20:10:00,63.6,53.6,29.90,West,275,2.3,2.3,70,0.00,CLR,,0.00,0.0,WeatherDisplay:10.37,2013-03-25 03:10:00,
2013-03-24 20:15:00,63.5,53.5,29.90,West,275,1.1,1.1,70,0.00,CLR,,0.00,0.0,WeatherDisplay:10.37,2013-03-25 03:15:00,
2013-03-24 20:20:00,63.3,53.7,29.90,West,275,2.3,2.3,71,0.00,CLR,,0.00,0.0,WeatherDisplay:10.37,2013-03-25 03:20:00,
2013-03-24 20:25:00,63.2,53.6,29.90,West,275,1.1,1.1,71,0.00,CLR,,0.00,0.0,WeatherDisplay:10.37,2013-03-25 03:25:00,
2013-03-24 20:30:00,63.1,53.5,29.90,West,275,1.1,0.0,71,0.00,CLR,,0.00,0.0,WeatherDisplay:10.37,2013-03-25 03:30:00,
2013-03-24 20:35:00,62.9,53.7,29.90,West,275,1.1,1.1,72,0.00,CLR,,0.00,0.0,WeatherDisplay:10.37,2013-03-25 03:35:00,
2013-03-24 20:40:00,62.8,53.6,29.90,West,275,3.5,3.5,72,0.00,CLR,,0.00,0.0,WeatherDisplay:10.37,2013-03-25 03:40:00,
2013-03-24 20:45:00,62.7,53.5,29.90,West,275,3.5,3.5,72,0.00,CLR,,0.00,0.0,WeatherDisplay:10.37,2013-03-25 03:45:00,
2013-03-24 20:50:00,62.6,53.4,29.91,West,275,1.1,1.1,72,0.00,CLR,,0.00,0.0,WeatherDisplay:10.37,2013-03-25 03:50:00,
2013-03-24 20:55:00,62.4,53.6,29.91,West,275,1.1,0.0,73,0.00,CLR,,0.00,0.0,WeatherDisplay:10.37,2013-03-25 03:55:00,
2013-03-24 21:00:00,62.2,53.4,29.91,West,275,1.1,1.1,73,0.00,CLR,,0.00,0.0,WeatherDisplay:10.37,2013-03-25 04:00:00,
2013-03-24 21:05:00,62.0,53.2,29.91,West,275,1.1,0.0,73,0.00,CLR,,0.00,0.0,WeatherDisplay:10.37,2013-03-25 04:05:00,
2013-03-24 21:10:00,62.0,53.6,29.91,West,275,2.0,2.0,74,0.00,CLR,,0.00,0.0,WeatherDisplay:10.37,2013-03-25 04:10:00,
2013-03-24 21:15:00,62.0,53.6,29.91,West,275,1.1,1.1,74,0.00,CLR,,0.00,0.0,WeatherDisplay:10.37,2013-03-25 04:15:00,
2013-03-24 21:20:00,61.9,53.5,29.92,West,275,1.1,0.0,74,0.00,CLR,,0.00,0.0,WeatherDisplay:10.37,2013-03-25 04:20:00,
2013-03-24 21:25:00,61.8,53.8,29.92,West,275,2.3,2.3,75,0.00,CLR,,0.00,0.0,WeatherDisplay:10.37,2013-03-25 04:25:00,
2013-03-24 21:30:00,61.8,53.8,29.92,West,275,1.1,0.0,75,0.00,CLR,,0.00,0.0,WeatherDisplay:10.37,2013-03-25 04:30:00,
2013-03-24 21:35:00,61.6,53.6,29.92,West,275,1.1,0.0,75,0.00,CLR,,0.00,0.0,WeatherDisplay:10.37,2013-03-25 04:35:00,
2013-03-24 21:40:00,61.4,53.8,29.92,West,275,1.1,1.1,76,0.00,CLR,,0.00,0.0,WeatherDisplay:10.37,2013-03-25 04:40:00,
2013-03-24 21:45:00,61.3,53.7,29.92,West,275,1.1,0.0,76,0.00,CLR,,0.00,0.0,WeatherDisplay:10.37,2013-03-25 04:45:00,
2013-03-24 21:50:00,61.2,53.9,29.92,West,275,2.3,2.3,77,0.00,CLR,,0.00,0.0,WeatherDisplay:10.37,2013-03-25 04:50:00,
2013-03-24 21:55:00,61.0,54.1,29.92,West,275,1.1,0.0,78,0.00,CLR,,0.00,0.0,WeatherDisplay:10.37,2013-03-25 04:55:00,
2013-03-24 22:00:00,60.8,53.9,29.92,West,275,1.1,1.1,78,0.00,CLR,,0.00,0.0,WeatherDisplay:10.37,2013-03-25 05:00:00,
2013-03-24 22:05:00,60.6,54.0,29.92,West,275,0.0,0.0,79,0.00,CLR,,0.00,0.0,WeatherDisplay:10.37,2013-03-25 05:05:00,
2013-03-24 22:10:00,60.4,53.9,29.92,West,275,1.1,1.1,79,0.00,CLR,,0.00,0.0,WeatherDisplay:10.37,2013-03-25 05:10:00,
2013-03-24 22:15:00,60.4,54.2,29.93,West,275,2.3,2.3,80,0.00,CLR,,0.00,0.0,WeatherDisplay:10.37,2013-03-25 05:15:00,
2013-03-24 22:20:00,60.4,54.2,29.93,West,275,0.0,0.0,80,0.00,CLR,,0.00,0.0,WeatherDisplay:10.37,2013-03-25 05:20:00,
2013-03-24 22:25:00,60.4,54.2,29.93,West,275,0.0,0.0,80,0.00,CLR,,0.00,0.0,WeatherDisplay:10.37,2013-03-25 05:25:00,
2013-03-24 22:30:00,60.2,54.3,29.93,West,275,0.0,0.0,81,0.00,CLR,,0.00,0.0,WeatherDisplay:10.37,2013-03-25 05:30:00,
2013-03-24 22:35:00,60.1,54.2,29.93,West,275,1.1,1.1,81,0.00,CLR,,0.00,0.0,WeatherDisplay:10.37,2013-03-25 05:35:00,
2013-03-24 22:40:00,60.0,54.5,29.93,West,275,1.1,0.0,82,0.00,CLR,,0.00,0.0,WeatherDisplay:10.37,2013-03-25 05:40:00,
2013-03-24 22:45:00,60.0,54.5,29.93,West,275,1.1,1.1,82,0.00,CLR,,0.00,0.0,WeatherDisplay:10.37,2013-03-25 05:45:00,
2013-03-24 22:50:00,59.8,54.3,29.94,West,275,0.0,0.0,82,0.00,CLR,,0.00,0.0,WeatherDisplay:10.37,2013-03-25 05:50:00,
2013-03-24 22:55:00,59.6,54.1,29.94,West,275,0.0,0.0,82,0.00,CLR,,0.00,0.0,WeatherDisplay:10.37,2013-03-25 05:55:00,
2013-03-24 23:00:00,59.3,53.8,29.94,West,275,0.0,0.0,82,0.00,CLR,,0.00,0.0,WeatherDisplay:10.37,2013-03-25 06:00:00,
2013-03-24 23:05:00,59.1,53.9,29.93,West,275,0.0,0.0,83,0.00,CLR,,0.00,0.0,WeatherDisplay:10.37,2013-03-25 06:05:00,
2013-03-24 23:10:00,58.9,53.7,29.94,West,275,0.0,0.0,83,0.00,CLR,,0.00,0.0,WeatherDisplay:10.37,2013-03-25 06:10:00,
2013-03-24 23:15:00,58.8,54.0,29.93,West,275,0.0,0.0,84,0.00,CLR,,0.00,0.0,WeatherDisplay:10.37,2013-03-25 06:15:00,
2013-03-24 23:20:00,58.6,53.5,29.93,West,275,0.0,0.0,83,0.00,CLR,,0.00,0.0,WeatherDisplay:10.37,2013-03-25 06:20:00,
2013-03-24 23:25:00,58.3,53.2,29.94,West,275,0.0,0.0,83,0.00,CLR,,0.00,0.0,WeatherDisplay:10.37,2013-03-25 06:25:00,
2013-03-24 23:30:00,58.2,53.4,29.93,West,275,0.0,0.0,84,0.00,CLR,,0.00,0.0,WeatherDisplay:10.37,2013-03-25 06:30:00,
2013-03-24 23:35:00,58.2,53.7,29.93,West,275,0.0,0.0,85,0.00,CLR,,0.00,0.0,WeatherDisplay:10.37,2013-03-25 06:35:00,
2013-03-24 23:40:00,58.0,53.5,29.93,West,275,0.0,0.0,85,0.00,CLR,,0.00,0.0,WeatherDisplay:10.37,2013-03-25 06:40:00,
2013-03-24 23:45:00,57.9,53.4,29.93,West,275,0.0,0.0,85,0.00,CLR,,0.00,0.0,WeatherDisplay:10.37,2013-03-25 06:45:00,
2013-03-24 23:50:00,57.7,53.2,29.93,West,275,0.0,0.0,85,0.00,CLR,,0.00,0.0,WeatherDisplay:10.37,2013-03-25 06:50:00,
2013-03-24 23:55:00,57.5,53.3,29.93,West,275,0.0,0.0,86,0.00,CLR,,0.00,0.0,WeatherDisplay:10.37,2013-03-25 06:55:00,